Time;durP1;ratioP1;P1;durP2;ratioP2;P2;SDS_P1;SDS_P2;PMS_P1;PMS_P2;Temp;Humidity;BMP_temperature;BMP_pressure;BME280_temperature;BME280_humidity;BME280_pressure;Samples;Min_cycle;Max_cycle;Signal;HPM_P1;HPM_P2
2022/12/18 00:01:25;;;;;;;52.53;38.88;;;5.50;99.90;;;;;;5085450;28;20017;-77
2022/12/18 00:03:52;;;;;;;173.82;117.32;;;5.50;99.90;;;;;;5080601;28;20148;-77
2022/12/18 00:06:19;;;;;;;25.98;19.35;;;5.40;99.90;;;;;;5071746;28;20050;-77
2022/12/18 00:08:46;;;;;;;24.85;18.92;;;5.40;99.90;;;;;;5100494;28;20028;-77
2022/12/18 00:11:14;;;;;;;34.63;25.85;;;5.30;99.90;;;;;;5079415;28;20088;-77
2022/12/18 00:13:40;;;;;;;25.00;16.67;;;5.30;99.90;;;;;;5100501;28;20020;-77
2022/12/18 00:16:09;;;;;;;21.88;16.38;;;5.20;99.90;;;;;;5084803;28;20029;-77
2022/12/18 00:18:35;;;;;;;20.73;16.30;;;5.20;99.90;;;;;;5089332;28;20024;-77
2022/12/18 00:21:03;;;;;;;25.80;16.42;;;5.20;99.90;;;;;;5076063;28;20141;-77
2022/12/18 00:23:29;;;;;;;23.50;19.60;;;5.20;99.90;;;;;;5069906;28;20063;-77
2022/12/18 00:25:59;;;;;;;20.30;16.23;;;5.20;99.90;;;;;;5091347;28;20065;-77
2022/12/18 00:28:25;;;;;;;20.30;15.07;;;5.20;99.90;;;;;;5089337;28;20024;-77
2022/12/18 00:30:51;;;;;;;20.05;16.35;;;5.20;99.90;;;;;;5092391;28;20414;-77
2022/12/18 00:33:17;;;;;;;20.92;15.82;;;5.10;99.90;;;;;;5072052;28;20066;-77
2022/12/18 00:35:44;;;;;;;20.60;15.48;;;5.10;99.90;;;;;;5079588;28;20031;-77
2022/12/18 00:38:09;;;;;;;40.17;30.23;;;5.00;99.90;;;;;;5092676;28;20020;-77
2022/12/18 00:40:35;;;;;;;28.75;23.73;;;4.90;99.90;;;;;;5093176;28;20024;-78
2022/12/18 00:43:01;;;;;;;21.55;17.08;;;4.80;99.90;;;;;;5092595;28;20028;-77
2022/12/18 00:45:30;;;;;;;26.95;21.00;;;4.70;99.90;;;;;;5092897;28;20048;-77
2022/12/18 00:47:56;;;;;;;27.15;21.23;;;4.70;99.90;;;;;;5093308;28;20071;-78
2022/12/18 00:50:23;;;;;;;25.63;20.75;;;4.70;99.90;;;;;;5091475;28;20047;-77
2022/12/18 00:52:50;;;;;;;28.40;20.63;;;4.60;99.90;;;;;;5093680;28;20103;-77
2022/12/18 00:55:16;;;;;;;30.05;23.20;;;4.60;99.90;;;;;;5080104;28;20024;-77
2022/12/18 00:57:42;;;;;;;25.13;20.77;;;4.50;99.90;;;;;;5076653;28;20024;-78
2022/12/18 01:00:13;;;;;;;24.40;19.38;;;4.50;99.90;;;;;;5079565;28;20105;-77
2022/12/18 01:02:39;;;;;;;23.42;17.50;;;4.50;99.90;;;;;;5090517;28;20024;-77
2022/12/18 01:05:05;;;;;;;24.40;19.73;;;4.50;99.90;;;;;;5096241;28;20061;-77
2022/12/18 01:07:31;;;;;;;24.55;17.73;;;4.50;99.90;;;;;;5090322;28;20024;-77
2022/12/18 01:09:56;;;;;;;26.33;20.70;;;4.40;99.90;;;;;;5095297;28;20025;-77
2022/12/18 01:12:22;;;;;;;19.13;17.08;;;4.40;99.90;;;;;;5079644;28;20110;-77
2022/12/18 01:14:48;;;;;;;23.90;17.50;;;4.40;99.90;;;;;;5093777;28;20028;-78
2022/12/18 01:17:14;;;;;;;26.25;18.20;;;4.40;99.90;;;;;;5080831;28;20012;-77
2022/12/18 01:19:40;;;;;;;27.40;17.10;;;4.40;99.90;;;;;;5078642;28;20385;-77
2022/12/18 01:22:06;;;;;;;21.02;17.27;;;4.30;99.90;;;;;;5079505;28;20036;-77
2022/12/18 01:24:31;;;;;;;19.40;15.20;;;4.20;99.90;;;;;;5091682;28;20033;-77
2022/12/18 01:26:57;;;;;;;21.90;16.83;;;4.10;99.90;;;;;;5069593;28;20025;-77
2022/12/18 01:29:23;;;;;;;23.90;16.63;;;4.10;99.90;;;;;;5073677;28;20032;-77
2022/12/18 01:31:49;;;;;;;19.27;16.40;;;4.00;99.90;;;;;;5087422;28;20323;-77
2022/12/18 01:34:15;;;;;;;21.13;16.60;;;3.90;99.90;;;;;;5092187;28;20028;-77
2022/12/18 01:36:41;;;;;;;23.83;15.88;;;3.80;99.90;;;;;;5073412;28;20427;-77
2022/12/18 01:39:12;;;;;;;23.33;17.30;;;3.70;99.90;;;;;;5096345;28;20020;-77
2022/12/18 01:45:10;;;;;;;24.98;18.63;;;3.60;99.90;;;;;;5065801;28;20404;-77
2022/12/18 01:48:11;;;;;;;22.58;17.27;;;3.60;99.90;;;;;;5090428;28;20027;-77
2022/12/18 01:50:41;;;;;;;24.35;18.80;;;3.50;99.90;;;;;;5068688;28;20059;-77
2022/12/18 01:53:12;;;;;;;24.60;19.15;;;3.40;99.90;;;;;;5093021;28;20046;-77
2022/12/18 01:55:52;;;;;;;29.33;21.27;;;3.30;99.90;;;;;;5088312;28;20544;-77
2022/12/18 01:58:19;;;;;;;30.02;19.92;;;3.30;99.90;;;;;;5094861;28;20066;-77
2022/12/18 02:00:46;;;;;;;34.80;21.83;;;3.30;99.90;;;;;;5087205;28;20024;-77
2022/12/18 02:03:11;;;;;;;31.85;22.27;;;3.30;99.90;;;;;;5094995;28;20043;-77
2022/12/18 02:05:44;;;;;;;31.00;20.85;;;3.40;99.90;;;;;;5090095;28;20028;-77
2022/12/18 02:08:35;;;;;;;31.00;20.88;;;3.30;99.90;;;;;;5072120;28;20551;-77
2022/12/18 02:11:12;;;;;;;25.27;19.33;;;3.20;99.90;;;;;;5078117;28;20124;-77
2022/12/18 02:14:11;;;;;;;26.33;19.70;;;3.30;99.90;;;;;;5097792;28;20578;-77
2022/12/18 02:16:49;;;;;;;34.55;21.02;;;3.10;99.90;;;;;;5068763;28;20028;-77
2022/12/18 02:19:43;;;;;;;46.15;22.40;;;3.10;99.90;;;;;;5088875;28;20150;-77
2022/12/18 02:22:26;;;;;;;42.97;23.00;;;3.10;99.90;;;;;;5080796;28;20397;-77
2022/12/18 02:25:07;;;;;;;53.40;23.50;;;3.20;99.90;;;;;;5089830;28;20047;-77
2022/12/18 02:27:35;;;;;;;38.13;21.20;;;3.20;99.90;;;;;;5082955;28;20082;-77
2022/12/18 02:30:03;;;;;;;30.50;21.40;;;3.20;99.90;;;;;;5091016;28;20060;-77
2022/12/18 02:32:34;;;;;;;44.45;22.80;;;3.20;99.90;;;;;;5069729;28;20021;-77
2022/12/18 02:35:04;;;;;;;28.23;20.48;;;3.10;99.90;;;;;;5075530;28;20020;-77
2022/12/18 02:37:32;;;;;;;28.88;19.35;;;3.10;99.90;;;;;;5077243;28;20066;-77
2022/12/18 02:39:59;;;;;;;27.83;20.13;;;3.00;99.90;;;;;;5091935;28;20052;-77
2022/12/18 02:42:27;;;;;;;27.05;20.83;;;3.00;99.90;;;;;;5071581;28;20031;-77
2022/12/18 02:44:53;;;;;;;28.02;19.73;;;2.90;99.90;;;;;;5075745;28;20071;-77
2022/12/18 02:47:22;;;;;;;28.85;20.35;;;2.80;99.90;;;;;;5072681;28;20028;-77
2022/12/18 02:49:58;;;;;;;29.42;21.15;;;2.80;99.90;;;;;;5093045;28;20077;-77
2022/12/18 02:52:39;;;;;;;24.83;20.13;;;2.80;99.90;;;;;;5092349;28;20024;-77
2022/12/18 02:55:23;;;;;;;29.60;20.98;;;2.70;99.90;;;;;;5077717;28;20103;-78
2022/12/18 02:57:59;;;;;;;30.08;21.52;;;2.70;99.90;;;;;;5091134;28;20218;-77
2022/12/18 03:00:48;;;;;;;31.08;21.80;;;2.70;99.90;;;;;;5089379;28;20079;-77
2022/12/18 03:03:20;;;;;;;32.28;20.52;;;2.70;99.90;;;;;;5091063;28;20111;-77
2022/12/18 03:05:52;;;;;;;38.05;22.35;;;2.60;99.90;;;;;;5087388;28;20045;-77
2022/12/18 03:08:25;;;;;;;37.55;23.73;;;2.60;99.90;;;;;;5092735;28;20035;-77
2022/12/18 03:11:04;;;;;;;28.95;21.63;;;2.60;99.90;;;;;;5093294;28;20480;-77
2022/12/18 03:13:59;;;;;;;29.25;19.98;;;2.60;99.90;;;;;;5096486;28;20035;-77
2022/12/18 03:16:28;;;;;;;27.00;20.38;;;2.60;99.90;;;;;;5079203;28;20036;-77
2022/12/18 03:19:12;;;;;;;26.73;18.83;;;2.50;99.90;;;;;;5097135;28;20054;-77
2022/12/18 03:21:49;;;;;;;28.48;19.67;;;2.50;99.90;;;;;;5082013;28;20024;-77
2022/12/18 03:24:17;;;;;;;32.83;20.35;;;2.50;99.90;;;;;;5087274;28;20066;-77
2022/12/18 03:26:47;;;;;;;34.65;20.50;;;2.50;99.90;;;;;;5078825;28;20094;-77
2022/12/18 03:29:39;;;;;;;29.52;21.50;;;2.40;99.90;;;;;;5071487;28;20418;-77
2022/12/18 03:32:20;;;;;;;27.70;21.08;;;2.40;99.90;;;;;;5088283;28;20119;-77
2022/12/18 03:34:50;;;;;;;29.52;21.90;;;2.30;99.90;;;;;;5099379;28;20100;-77
2022/12/18 03:37:16;;;;;;;30.45;20.83;;;2.20;99.90;;;;;;5093245;28;20070;-77
2022/12/18 03:39:42;;;;;;;25.23;19.77;;;2.10;99.90;;;;;;5096431;28;20024;-77
2022/12/18 03:42:33;;;;;;;29.10;21.48;;;2.00;99.90;;;;;;5088454;28;20370;-77
2022/12/18 03:45:08;;;;;;;32.35;21.70;;;2.00;99.90;;;;;;5091208;28;20107;-77
2022/12/18 03:47:59;;;;;;;26.88;21.65;;;1.80;99.90;;;;;;5097753;28;20024;-77
2022/12/18 03:50:37;;;;;;;;;;;1.90;99.90;;;;;;5078462;28;20178;-77
2022/12/18 03:53:14;;;;;;;27.73;19.92;;;1.90;99.90;;;;;;5085342;28;19911;-77
2022/12/18 03:55:40;;;;;;;29.48;21.50;;;1.80;99.90;;;;;;5093653;28;20023;-77
2022/12/18 03:58:08;;;;;;;31.30;21.75;;;1.80;99.90;;;;;;5079772;28;20028;-77
2022/12/18 04:00:35;;;;;;;30.05;22.85;;;1.90;99.90;;;;;;5079881;28;20023;-77
2022/12/18 04:03:02;;;;;;;33.63;23.88;;;1.80;99.90;;;;;;5101245;28;20400;-77
2022/12/18 04:05:30;;;;;;;31.25;22.20;;;1.80;99.90;;;;;;5097952;28;20023;-77
2022/12/18 04:07:57;;;;;;;31.95;23.63;;;1.80;99.90;;;;;;5098177;28;20064;-77
2022/12/18 04:10:22;;;;;;;29.58;22.55;;;1.80;99.90;;;;;;5098487;28;20059;-76
2022/12/18 04:12:48;;;;;;;33.75;24.50;;;1.80;99.90;;;;;;5085002;28;20032;-77
2022/12/18 04:15:14;;;;;;;31.25;23.45;;;1.80;99.90;;;;;;5080976;28;20024;-77
2022/12/18 04:17:49;;;;;;;37.00;23.10;;;1.80;99.90;;;;;;5085599;28;20064;-77
2022/12/18 04:20:15;;;;;;;32.83;25.00;;;1.70;99.90;;;;;;5068069;28;20444;-77
2022/12/18 04:22:41;;;;;;;34.03;23.45;;;1.70;99.90;;;;;;5086977;28;20024;-77
2022/12/18 04:25:07;;;;;;;32.75;24.52;;;1.80;99.90;;;;;;5094461;28;20048;-77
2022/12/18 04:27:33;;;;;;;38.17;26.05;;;1.70;99.90;;;;;;5073519;28;20024;-77
2022/12/18 04:29:59;;;;;;;38.58;25.27;;;1.70;99.90;;;;;;5098548;28;20092;-77
2022/12/18 04:32:25;;;;;;;44.72;31.02;;;1.70;99.90;;;;;;5087187;28;20024;-77
2022/12/18 04:34:51;;;;;;;38.45;28.50;;;1.80;99.90;;;;;;5098696;28;20560;-77
2022/12/18 04:37:17;;;;;;;44.28;30.35;;;1.80;99.90;;;;;;5091860;28;20477;-77
2022/12/18 04:39:43;;;;;;;44.97;28.88;;;1.80;99.90;;;;;;5083165;28;20027;-77
2022/12/18 04:42:09;;;;;;;37.88;26.58;;;1.80;99.90;;;;;;5076780;28;20487;-77
2022/12/18 04:44:35;;;;;;;38.67;23.73;;;1.80;99.90;;;;;;5097214;28;20039;-77
2022/12/18 04:47:01;;;;;;;31.20;22.00;;;1.80;99.90;;;;;;5068559;28;20025;-77
2022/12/18 04:49:27;;;;;;;32.50;23.00;;;2.00;99.90;;;;;;5097595;28;20031;-77
2022/12/18 04:51:53;;;;;;;32.47;21.58;;;2.10;99.90;;;;;;5071063;28;20024;-77
2022/12/18 04:54:19;;;;;;;32.03;21.02;;;2.30;99.90;;;;;;5097615;28;20515;-77
2022/12/18 04:56:44;;;;;;;34.92;20.08;;;2.40;99.90;;;;;;5086348;28;20113;-77
2022/12/18 04:59:10;;;;;;;30.70;19.75;;;2.50;99.90;;;;;;5098752;28;20020;-77
2022/12/18 05:01:36;;;;;;;33.70;19.67;;;2.70;99.90;;;;;;5086112;28;20507;-76
2022/12/18 05:04:02;;;;;;;29.40;18.08;;;2.80;99.90;;;;;;5096580;28;20051;-77
2022/12/18 05:06:28;;;;;;;23.38;16.15;;;2.90;99.90;;;;;;5070973;28;20031;-77
2022/12/18 05:08:54;;;;;;;26.45;18.25;;;3.10;99.90;;;;;;5099490;28;20020;-77
2022/12/18 05:11:20;;;;;;;26.08;16.60;;;3.20;99.90;;;;;;5095314;28;20032;-77
2022/12/18 05:13:46;;;;;;;25.08;16.88;;;3.30;99.90;;;;;;5099566;28;20035;-78
2022/12/18 05:16:13;;;;;;;22.35;15.68;;;3.30;99.90;;;;;;5072753;28;20370;-77
2022/12/18 05:18:38;;;;;;;24.45;16.58;;;3.30;99.90;;;;;;5086560;28;20021;-77
2022/12/18 05:21:05;;;;;;;24.35;15.93;;;3.40;99.90;;;;;;5075367;28;20514;-77
2022/12/18 05:23:35;;;;;;;20.65;15.27;;;3.30;99.90;;;;;;5087060;28;20042;-77
2022/12/18 05:26:02;;;;;;;;;;;3.30;99.90;;;;;;5090980;28;20051;-78
2022/12/18 05:28:30;;;;;;;17.85;15.38;;;3.40;99.90;;;;;;5078480;28;19904;-77
2022/12/18 05:30:58;;;;;;;20.90;15.20;;;3.40;99.90;;;;;;5076517;28;20036;-77
2022/12/18 05:33:27;;;;;;;24.40;16.27;;;3.40;99.90;;;;;;5089145;28;20024;-77
2022/12/18 05:36:04;;;;;;;23.38;15.25;;;3.50;99.90;;;;;;5077260;28;20017;-77
2022/12/18 05:38:32;;;;;;;22.63;14.80;;;3.60;99.90;;;;;;5090214;28;20048;-78
2022/12/18 05:40:58;;;;;;;21.27;15.23;;;3.60;99.90;;;;;;5092039;28;20395;-77
2022/12/18 05:43:25;;;;;;;23.77;15.52;;;3.50;99.90;;;;;;5073382;28;20119;-77
2022/12/18 05:45:52;;;;;;;21.65;14.18;;;3.50;99.90;;;;;;5089397;28;20028;-77
2022/12/18 05:48:19;;;;;;;19.48;14.48;;;3.50;99.90;;;;;;5073872;28;20035;-77
2022/12/18 05:50:46;;;;;;;18.23;14.48;;;3.60;99.90;;;;;;5091654;28;20511;-77
2022/12/18 05:53:17;;;;;;;19.40;15.38;;;3.60;99.90;;;;;;5093781;28;20020;-77
2022/12/18 05:55:44;;;;;;;22.05;15.48;;;3.60;99.90;;;;;;5089149;28;20031;-78
2022/12/18 05:58:12;;;;;;;19.50;13.40;;;3.60;99.90;;;;;;5093482;28;20492;-77
2022/12/18 06:00:41;;;;;;;20.10;13.77;;;3.60;99.90;;;;;;5089044;28;20033;-77
2022/12/18 06:03:11;;;;;;;18.35;13.43;;;3.60;99.90;;;;;;5090986;28;20078;-77
2022/12/18 06:05:40;;;;;;;18.02;12.77;;;3.60;99.90;;;;;;5090316;28;20034;-76
2022/12/18 06:08:06;;;;;;;17.10;13.20;;;3.70;99.90;;;;;;5073576;28;20024;-77
2022/12/18 06:10:32;;;;;;;18.10;13.57;;;3.80;99.90;;;;;;5094286;28;20031;-77
2022/12/18 06:12:58;;;;;;;16.77;13.57;;;3.90;99.90;;;;;;5079711;28;20028;-77
2022/12/18 06:15:24;;;;;;;13.80;11.57;;;3.80;99.90;;;;;;5087917;28;20111;-77
2022/12/18 06:17:50;;;;;;;17.10;12.60;;;3.90;99.90;;;;;;5080541;28;20059;-78
2022/12/18 06:20:16;;;;;;;16.83;12.40;;;3.90;99.90;;;;;;5071444;28;20074;-77
2022/12/18 06:22:42;;;;;;;26.20;12.90;;;4.00;99.90;;;;;;5075734;28;20032;-78
2022/12/18 06:25:08;;;;;;;15.05;11.85;;;4.00;99.90;;;;;;5089355;28;20048;-77
2022/12/18 06:27:34;;;;;;;14.73;11.80;;;4.00;99.90;;;;;;5082624;28;20070;-78
2022/12/18 06:30:00;;;;;;;14.40;11.07;;;4.00;99.90;;;;;;5093174;28;20028;-77
2022/12/18 06:32:27;;;;;;;13.95;11.55;;;4.00;99.90;;;;;;5064309;28;20492;-77
2022/12/18 06:34:53;;;;;;;17.83;12.65;;;4.00;99.90;;;;;;5091014;28;20024;-78
2022/12/18 06:37:19;;;;;;;14.15;11.20;;;4.00;99.90;;;;;;5084532;28;20095;-77
2022/12/18 06:39:45;;;;;;;13.98;11.65;;;3.90;99.90;;;;;;5091954;28;20028;-77
2022/12/18 06:42:11;;;;;;;13.90;11.32;;;3.90;99.90;;;;;;5086756;28;20058;-77
2022/12/18 06:44:37;;;;;;;12.75;11.40;;;3.90;99.90;;;;;;5077544;28;20051;-77
2022/12/18 06:47:02;;;;;;;14.95;11.73;;;3.90;99.90;;;;;;5085996;28;20021;-77
2022/12/18 06:49:28;;;;;;;14.35;10.45;;;3.90;99.90;;;;;;5095351;28;20032;-77
2022/12/18 06:51:54;;;;;;;14.80;10.43;;;3.90;99.90;;;;;;5089855;28;20030;-77
2022/12/18 06:54:20;;;;;;;17.13;11.88;;;4.00;99.90;;;;;;5077280;28;20031;-77
2022/12/18 06:56:46;;;;;;;14.35;10.90;;;3.90;99.90;;;;;;5081198;28;20013;-78
2022/12/18 06:59:13;;;;;;;12.25;10.77;;;4.00;99.90;;;;;;5096482;28;20101;-78
2022/12/18 07:01:39;;;;;;;11.82;10.63;;;4.00;99.90;;;;;;5069938;28;20021;-77
2022/12/18 07:04:05;;;;;;;15.32;9.95;;;4.00;99.90;;;;;;5097231;28;20480;-77
2022/12/18 07:06:30;;;;;;;12.80;10.80;;;4.00;99.90;;;;;;5080657;28;20091;-76
2022/12/18 07:08:56;;;;;;;11.55;10.20;;;4.10;99.90;;;;;;5097145;28;20024;-78
2022/12/18 07:11:23;;;;;;;12.25;9.88;;;4.10;99.90;;;;;;5093180;28;20021;-77
2022/12/18 07:13:49;;;;;;;12.00;9.68;;;4.10;99.90;;;;;;5097213;28;20102;-77
2022/12/18 07:16:18;;;;;;;14.25;10.48;;;4.20;99.90;;;;;;5083239;28;20047;-77
2022/12/18 07:18:44;;;;;;;16.58;10.65;;;4.30;99.90;;;;;;5084792;28;20028;-76
2022/12/18 07:21:14;;;;;;;14.68;11.23;;;4.30;99.90;;;;;;5073655;28;20032;-77
2022/12/18 07:23:40;;;;;;;13.65;10.68;;;4.40;99.90;;;;;;5088106;28;20032;-77
2022/12/18 07:26:11;;;;;;;14.38;9.30;;;4.50;99.90;;;;;;5088478;28;20449;-76
2022/12/18 07:28:39;;;;;;;15.55;10.32;;;4.60;99.90;;;;;;5086027;28;20039;-77
2022/12/18 07:31:06;;;;;;;14.10;10.27;;;4.60;99.90;;;;;;5077013;28;20064;-75
2022/12/18 07:33:34;;;;;;;31.60;21.33;;;4.60;99.90;;;;;;5087303;28;20024;-77
2022/12/18 07:36:01;;;;;;;13.52;11.30;;;4.80;99.90;;;;;;5089699;28;20024;-77
2022/12/18 07:38:27;;;;;;;11.73;9.95;;;4.70;99.90;;;;;;5065108;28;20036;-77
2022/12/18 07:40:53;;;;;;;11.80;10.23;;;4.70;99.90;;;;;;5074152;28;20492;-77
2022/12/18 07:43:18;;;;;;;17.88;11.00;;;4.70;99.90;;;;;;5088980;28;20028;-75
2022/12/18 07:45:44;;;;;;;14.20;11.35;;;4.70;99.90;;;;;;5088006;28;20116;-76
2022/12/18 07:48:10;;;;;;;15.70;13.43;;;4.80;99.90;;;;;;5089951;28;20031;-77
2022/12/18 07:50:37;;;;;;;103.43;73.32;;;4.90;99.90;;;;;;5090041;28;20028;-76
2022/12/18 07:53:04;;;;;;;12.98;10.50;;;4.80;99.90;;;;;;5076022;28;20035;-77
2022/12/18 07:55:31;;;;;;;68.43;52.70;;;4.90;99.90;;;;;;5091947;28;20094;-77
2022/12/18 07:58:00;;;;;;;16.23;11.60;;;5.00;99.90;;;;;;5087139;28;20157;-77
2022/12/18 08:00:26;;;;;;;15.48;13.30;;;5.10;99.90;;;;;;5089272;28;20037;-77
2022/12/18 08:02:52;;;;;;;13.32;11.93;;;5.10;99.90;;;;;;5070608;28;20028;-76
2022/12/18 08:05:18;;;;;;;14.05;10.43;;;5.10;99.90;;;;;;5090610;28;20054;-77
2022/12/18 08:07:44;;;;;;;11.27;9.95;;;5.20;99.90;;;;;;5087479;28;20016;-77
2022/12/18 08:10:09;;;;;;;13.38;9.25;;;5.30;99.90;;;;;;5091046;28;20035;-77
2022/12/18 08:12:35;;;;;;;15.88;12.80;;;5.30;99.90;;;;;;5092823;28;20032;-77
2022/12/18 08:15:01;;;;;;;12.68;9.57;;;5.30;99.90;;;;;;5080315;28;20068;-77
2022/12/18 08:17:27;;;;;;;13.88;9.65;;;5.40;99.90;;;;;;5066095;28;20052;-77
2022/12/18 08:19:53;;;;;;;15.13;10.57;;;5.40;99.90;;;;;;5082073;28;20099;-77
2022/12/18 08:22:18;;;;;;;12.75;9.30;;;5.50;99.90;;;;;;5070737;28;20029;-77
2022/12/18 08:24:45;;;;;;;10.88;8.68;;;5.60;99.90;;;;;;5082295;28;20115;-78
2022/12/18 08:27:11;;;;;;;11.93;8.90;;;5.60;99.90;;;;;;5096451;28;20107;-77
2022/12/18 08:29:37;;;;;;;10.93;8.90;;;5.70;99.90;;;;;;5077522;28;20055;-76
2022/12/18 08:32:02;;;;;;;10.15;8.57;;;5.70;99.90;;;;;;5094842;28;20044;-77
2022/12/18 08:34:28;;;;;;;11.52;8.43;;;5.70;99.90;;;;;;5096709;28;20021;-77
2022/12/18 08:36:54;;;;;;;11.60;8.45;;;5.80;99.90;;;;;;5075129;28;20027;-75
2022/12/18 08:39:20;;;;;;;12.82;9.38;;;5.80;99.90;;;;;;5065638;28;20028;-76
2022/12/18 08:44:37;;;;;;;11.02;8.35;;;5.90;99.90;;;;;;5093518;28;20052;-76
2022/12/18 08:44:38;;;;;;;12.07;9.27;;;5.90;99.90;;;;;;5093216;28;20032;-78
2022/12/18 08:47:05;;;;;;;10.32;8.25;;;6.00;99.90;;;;;;5076407;28;20031;-78
2022/12/18 08:49:31;;;;;;;18.40;11.55;;;6.00;99.90;;;;;;5072346;28;20077;-78
2022/12/18 08:51:57;;;;;;;37.85;20.55;;;6.10;99.90;;;;;;5076035;28;20015;-78
2022/12/18 08:54:23;;;;;;;17.55;11.00;;;6.20;99.90;;;;;;5095557;28;20606;-78
2022/12/18 08:56:49;;;;;;;14.02;10.57;;;6.30;99.90;;;;;;5090531;28;20099;-78
2022/12/18 08:59:16;;;;;;;120.70;60.35;;;6.40;99.90;;;;;;5091028;28;20553;-78
2022/12/18 09:01:42;;;;;;;69.80;31.02;;;6.50;99.90;;;;;;5090408;28;20055;-78
2022/12/18 09:04:09;;;;;;;51.40;29.48;;;6.60;99.90;;;;;;5095319;28;20480;-78
2022/12/18 09:06:35;;;;;;;20.45;12.93;;;6.60;99.90;;;;;;5075603;28;20025;-78
2022/12/18 09:09:02;;;;;;;45.10;25.65;;;6.70;99.90;;;;;;5094900;28;20024;-78
2022/12/18 09:11:28;;;;;;;48.75;24.73;;;6.80;99.90;;;;;;5093099;28;20020;-78
2022/12/18 09:13:55;;;;;;;84.82;40.28;;;6.90;99.90;;;;;;5097699;28;20549;-78
2022/12/18 09:16:22;;;;;;;82.38;39.85;;;7.00;99.90;;;;;;5074497;28;20061;-77
2022/12/18 09:18:48;;;;;;;47.97;23.35;;;7.10;99.90;;;;;;5085142;28;20020;-78
2022/12/18 09:21:19;;;;;;;222.90;113.45;;;7.20;99.90;;;;;;5091177;28;20505;-78
2022/12/18 09:23:56;;;;;;;40.90;24.45;;;7.20;99.90;;;;;;5079032;28;20052;-78
2022/12/18 09:26:23;;;;;;;14.90;10.75;;;7.30;99.90;;;;;;5093508;28;20042;-77
2022/12/18 09:28:49;;;;;;;18.13;11.95;;;7.40;99.90;;;;;;5093691;28;20031;-77
2022/12/18 09:31:16;;;;;;;15.57;10.10;;;7.50;99.90;;;;;;5092771;28;20036;-78
2022/12/18 09:33:42;;;;;;;13.20;10.68;;;7.60;99.90;;;;;;5095500;28;20453;-77
2022/12/18 09:36:11;;;;;;;11.73;10.38;;;7.70;99.90;;;;;;5093771;28;20074;-77
2022/12/18 09:38:37;;;;;;;56.60;39.33;;;7.70;99.90;;;;;;5093195;28;20024;-78
2022/12/18 09:41:21;;;;;;;14.00;8.80;;;7.80;99.90;;;;;;5072562;28;20033;-77
2022/12/18 09:43:55;;;;;;;18.35;11.75;;;7.90;99.90;;;;;;5097317;28;20024;-78
2022/12/18 09:46:33;;;;;;;16.52;11.88;;;8.00;99.90;;;;;;5088642;28;20035;-77
2022/12/18 09:49:05;;;;;;;15.80;10.18;;;8.10;99.90;;;;;;5092940;28;20087;-78
2022/12/18 09:51:39;;;;;;;13.88;11.13;;;8.10;99.90;;;;;;5091456;28;20026;-77
2022/12/18 09:54:16;;;;;;;26.60;19.00;;;8.20;99.90;;;;;;5097279;28;20026;-79
2022/12/18 09:56:43;;;;;;;11.35;8.73;;;8.30;99.90;;;;;;5089994;28;20028;-78
2022/12/18 09:59:26;;;;;;;13.40;9.23;;;8.30;99.90;;;;;;5088309;28;20107;-78
2022/12/18 10:01:52;;;;;;;9.93;6.82;;;8.30;99.90;;;;;;5092705;28;20014;-79
2022/12/18 10:04:18;;;;;;;11.02;8.23;;;8.40;99.90;;;;;;5096194;28;20099;-78
2022/12/18 10:06:58;;;;;;;9.73;7.80;;;8.40;99.90;;;;;;5073039;28;20024;-78
2022/12/18 10:09:37;;;;;;;7.80;6.40;;;8.40;99.90;;;;;;5088170;28;20031;-76
2022/12/18 10:12:14;;;;;;;11.70;6.78;;;8.40;99.90;;;;;;5089133;28;20082;-78
2022/12/18 10:15:01;;;;;;;9.98;6.28;;;8.40;99.90;;;;;;5068912;28;20450;-78
2022/12/18 10:17:53;;;;;;;7.75;6.53;;;8.40;99.90;;;;;;5094030;28;20024;-78
2022/12/18 10:20:38;;;;;;;8.68;6.45;;;8.50;99.90;;;;;;5089748;28;20036;-77
2022/12/18 10:23:04;;;;;;;7.28;6.28;;;8.50;99.90;;;;;;5092503;28;20028;-77
2022/12/18 10:25:39;;;;;;;8.43;5.82;;;8.50;99.90;;;;;;5062300;28;20106;-77
2022/12/18 10:28:12;;;;;;;6.90;6.10;;;8.50;99.90;;;;;;5067486;28;20048;-77
2022/12/18 10:30:40;;;;;;;7.65;6.15;;;8.50;99.90;;;;;;5067813;28;20032;-78
2022/12/18 10:33:10;;;;;;;8.27;5.68;;;8.60;99.90;;;;;;5074896;28;20025;-83
2022/12/18 10:35:36;;;;;;;7.55;5.40;;;8.60;99.90;;;;;;5068474;28;20040;-79
2022/12/18 10:38:07;;;;;;;8.25;5.90;;;8.70;99.90;;;;;;5075029;28;20478;-77
2022/12/18 10:40:47;;;;;;;;;;;8.70;99.90;;;;;;5069018;28;20032;-80
2022/12/18 10:43:14;;;;;;;8.82;6.43;;;8.70;99.90;;;;;;5068669;28;19908;-80
2022/12/18 10:45:40;;;;;;;6.88;6.18;;;8.70;99.90;;;;;;5067590;28;20027;-79
2022/12/18 10:48:21;;;;;;;6.65;5.50;;;8.70;99.90;;;;;;5073221;28;20116;-80
2022/12/18 10:50:54;;;;;;;8.25;5.60;;;8.70;99.90;;;;;;5069900;28;20468;-79
2022/12/18 10:53:28;;;;;;;10.85;5.40;;;8.70;99.90;;;;;;5073319;28;20071;-78
2022/12/18 10:55:59;;;;;;;7.43;5.20;;;8.70;99.90;;;;;;5065989;28;20012;-79
2022/12/18 10:58:33;;;;;;;6.80;6.15;;;8.70;99.90;;;;;;5069113;28;20068;-78
2022/12/18 11:01:08;;;;;;;7.43;5.60;;;8.70;99.90;;;;;;5066187;28;20051;-78
2022/12/18 11:03:35;;;;;;;11.32;5.38;;;8.80;99.90;;;;;;5073361;28;20481;-77
2022/12/18 11:06:04;;;;;;;6.80;5.40;;;8.80;99.90;;;;;;5063599;28;20016;-77
2022/12/18 11:08:30;;;;;;;8.57;5.88;;;8.80;99.90;;;;;;5071807;28;20056;-77
2022/12/18 11:10:56;;;;;;;6.22;5.03;;;8.90;99.90;;;;;;5072756;28;20025;-78
2022/12/18 11:13:27;;;;;;;12.73;5.85;;;8.90;99.90;;;;;;5074361;28;20382;-77
2022/12/18 11:15:53;;;;;;;91.55;46.55;;;9.00;99.90;;;;;;5069140;28;20036;-77
2022/12/18 11:18:26;;;;;;;9.70;7.22;;;9.00;99.90;;;;;;5069847;28;20032;-76
2022/12/18 11:20:58;;;;;;;103.95;56.95;;;9.00;99.90;;;;;;5068262;28;20032;-77
2022/12/18 11:23:25;;;;;;;7.75;5.57;;;9.00;99.90;;;;;;5073941;28;20062;-77
2022/12/18 11:25:59;;;;;;;7.18;5.97;;;9.10;99.90;;;;;;5087841;28;20032;-76
2022/12/18 11:28:46;;;;;;;6.05;5.40;;;9.00;99.90;;;;;;5084215;28;20111;-76
2022/12/18 11:31:15;;;;;;;7.00;5.72;;;9.00;99.90;;;;;;5068815;28;20031;-76
2022/12/18 11:33:46;;;;;;;9.27;6.57;;;9.00;99.90;;;;;;5069425;28;20016;-75
2022/12/18 11:36:14;;;;;;;7.13;5.93;;;9.00;99.90;;;;;;5073268;28;20108;-76
2022/12/18 11:38:41;;;;;;;8.38;6.10;;;9.00;99.90;;;;;;5074113;28;20023;-74
2022/12/18 11:41:15;;;;;;;8.48;5.80;;;9.00;99.90;;;;;;5091608;28;20047;-75
2022/12/18 11:43:58;;;;;;;9.23;4.45;;;9.10;99.90;;;;;;5094488;28;20495;-76
2022/12/18 11:47:02;;;;;;;9.70;6.93;;;9.10;99.90;;;;;;5090252;28;20093;-77
2022/12/18 11:49:35;;;;;;;16.10;6.55;;;9.10;99.90;;;;;;5029740;28;20513;-78
2022/12/18 11:52:15;;;;;;;7.68;5.28;;;9.10;99.90;;;;;;5087814;28;20072;-76
2022/12/18 11:54:41;;;;;;;7.47;5.30;;;9.20;99.90;;;;;;5097973;28;20024;-76
2022/12/18 11:57:55;;;;;;;7.95;5.28;;;9.30;99.90;;;;;;5095812;28;20012;-75
2022/12/18 12:00:22;;;;;;;7.45;5.85;;;9.20;99.90;;;;;;5016312;28;20133;-76
2022/12/18 12:03:30;;;;;;;7.40;5.75;;;9.30;99.90;;;;;;5090635;28;20032;-75
2022/12/18 12:06:31;;;;;;;11.25;4.95;;;9.30;99.90;;;;;;5080599;28;20040;-74
2022/12/18 12:09:17;;;;;;;10.13;5.25;;;9.30;99.90;;;;;;5077822;28;20024;-75
2022/12/18 12:11:43;;;;;;;10.27;5.47;;;9.30;99.90;;;;;;5094099;28;20024;-74
2022/12/18 12:14:28;;;;;;;9.50;6.28;;;9.40;99.90;;;;;;5099415;28;20388;-75
2022/12/18 12:17:02;;;;;;;8.82;5.65;;;9.40;99.90;;;;;;5095079;28;20031;-75
2022/12/18 12:20:01;;;;;;;7.13;5.40;;;9.40;99.90;;;;;;5090399;28;20024;-74
2022/12/18 12:22:36;;;;;;;10.25;5.55;;;9.30;99.90;;;;;;5095945;28;20020;-74
2022/12/18 12:25:31;;;;;;;8.05;5.45;;;9.30;99.90;;;;;;5094226;28;20097;-74
2022/12/18 12:28:35;;;;;;;14.38;9.75;;;9.40;99.90;;;;;;5078595;28;20055;-75
2022/12/18 12:31:20;;;;;;;18.25;13.10;;;9.40;99.90;;;;;;5064525;28;20040;-74
2022/12/18 12:34:08;;;;;;;10.48;8.45;;;9.40;99.90;;;;;;5097356;28;20035;-74
2022/12/18 12:36:52;;;;;;;13.95;10.02;;;9.30;99.90;;;;;;5087867;28;20020;-75
2022/12/18 12:39:28;;;;;;;8.95;6.03;;;9.30;99.90;;;;;;5074591;28;20016;-75
2022/12/18 12:44:48;;;;;;;6.15;5.55;;;9.40;99.90;;;;;;5090893;28;20466;-75
2022/12/18 12:47:25;;;;;;;8.63;5.93;;;9.40;99.90;;;;;;5071886;28;20016;-75
2022/12/18 12:49:51;;;;;;;11.20;7.57;;;9.40;99.90;;;;;;5093030;28;20025;-74
2022/12/18 12:52:40;;;;;;;7.97;6.10;;;9.30;99.90;;;;;;5095187;28;20022;-74
2022/12/18 12:55:21;;;;;;;8.90;6.68;;;9.30;99.90;;;;;;5088454;28;20024;-74
2022/12/18 12:57:58;;;;;;;7.00;5.88;;;9.30;99.90;;;;;;5095496;28;20020;-74
2022/12/18 13:00:30;;;;;;;23.48;7.75;;;9.30;99.90;;;;;;5081185;28;20025;-75
2022/12/18 13:03:04;;;;;;;7.85;5.95;;;9.30;99.90;;;;;;5077836;28;20027;-75
2022/12/18 13:06:07;;;;;;;10.18;8.57;;;9.30;99.90;;;;;;5094463;28;20062;-75
2022/12/18 13:08:52;;;;;;;72.32;34.80;;;9.30;99.90;;;;;;5049707;28;20500;-74